createdAt,value
2022-11-16T00:01:03.692Z,25.73
2022-11-16T00:04:06.331Z,26.37
2022-11-16T00:07:08.796Z,26.95
2022-11-16T00:10:12.053Z,27.08
2022-11-16T00:13:14.419Z,27.73
2022-11-16T00:16:18.204Z,26.35
2022-11-16T00:19:20.534Z,27.73
2022-11-16T00:22:23.093Z,28.87
2022-11-16T00:25:25.332Z,27.80
2022-11-16T00:28:28.504Z,28.70
2022-11-16T00:31:31.174Z,27.58
2022-11-16T00:34:33.891Z,28.30
2022-11-16T00:37:36.353Z,28.25
2022-11-16T00:40:38.900Z,27.25
2022-11-16T00:43:41.234Z,26.52
2022-11-16T00:46:44.200Z,31.67
2022-11-16T00:49:46.395Z,28.70
2022-11-16T00:52:48.902Z,24.60
2022-11-16T00:55:51.127Z,26.58
2022-11-16T00:58:54.512Z,28.23
2022-11-16T01:01:56.881Z,26.05
2022-11-16T01:04:59.414Z,29.00
2022-11-16T01:08:01.698Z,28.08
2022-11-16T01:11:25.950Z,27.52
2022-11-16T01:14:28.231Z,27.67
2022-11-16T01:17:30.772Z,25.33
2022-11-16T01:20:32.987Z,27.27
2022-11-16T01:23:35.600Z,28.52
2022-11-16T01:26:37.985Z,26.73
2022-11-16T01:29:41.211Z,27.15
2022-11-16T01:32:44.012Z,28.05
2022-11-16T01:35:46.907Z,27.67
2022-11-16T01:38:50.695Z,28.55
2022-11-16T01:41:53.689Z,27.35
2022-11-16T01:45:43.989Z,27.67
2022-11-16T01:48:52.842Z,25.80
2022-11-16T01:52:03.050Z,24.97
2022-11-16T01:55:07.128Z,24.85
2022-11-16T01:58:17.372Z,26.67
2022-11-16T02:01:20.786Z,26.08
2022-11-16T02:04:24.072Z,26.15
2022-11-16T02:07:57.716Z,26.30
2022-11-16T02:11:21.752Z,24.00
2022-11-16T02:14:42.334Z,23.77
2022-11-16T02:17:45.745Z,23.67
2022-11-16T02:21:06.935Z,23.30
2022-11-16T02:24:23.294Z,23.00
2022-11-16T02:27:44.717Z,22.90
2022-11-16T02:30:50.708Z,25.02
2022-11-16T02:33:56.198Z,23.10
2022-11-16T02:37:01.667Z,21.65
2022-11-16T02:40:07.959Z,22.70
2022-11-16T02:43:15.518Z,20.60
2022-11-16T02:46:29.606Z,23.08
2022-11-16T02:49:36.438Z,20.08
2022-11-16T02:52:39.004Z,22.00
2022-11-16T02:55:41.707Z,22.13
2022-11-16T02:58:44.334Z,20.50
2022-11-16T03:02:17.086Z,21.00
2022-11-16T03:05:32.120Z,19.15
2022-11-16T03:08:39.998Z,19.98
2022-11-16T03:12:00.205Z,19.67
2022-11-16T03:15:06.042Z,19.77
2022-11-16T03:18:09.108Z,20.05
2022-11-16T03:21:18.308Z,22.10
2022-11-16T03:24:20.858Z,20.02
2022-11-16T03:27:47.823Z,19.57
2022-11-16T03:30:56.192Z,20.58
2022-11-16T03:34:03.850Z,19.92
2022-11-16T03:37:06.543Z,20.67
2022-11-16T03:40:12.705Z,18.30
2022-11-16T03:43:15.888Z,20.23
2022-11-16T03:46:18.842Z,20.67
2022-11-16T03:49:22.946Z,19.15
2022-11-16T03:52:26.843Z,19.98
2022-11-16T03:55:29.165Z,19.02
2022-11-16T03:58:32.126Z,20.20
2022-11-16T04:01:34.797Z,19.48
2022-11-16T04:04:56.650Z,18.87
2022-11-16T04:08:17.770Z,19.35
2022-11-16T04:11:40.931Z,19.40
2022-11-16T04:15:02.911Z,20.07
2022-11-16T04:18:24.532Z,19.40
2022-11-16T04:21:50.261Z,19.20
2022-11-16T04:25:00.598Z,18.05
2022-11-16T04:28:13.305Z,18.00
2022-11-16T04:31:34.706Z,19.20
2022-11-16T04:34:56.034Z,18.23
2022-11-16T04:37:59.826Z,19.25
2022-11-16T04:41:02.725Z,19.62
2022-11-16T04:44:05.534Z,20.65
2022-11-16T04:47:09.621Z,19.23
2022-11-16T04:50:12.693Z,20.33
2022-11-16T04:53:15.889Z,20.85
2022-11-16T04:56:19.038Z,20.65
2022-11-16T04:59:22.334Z,20.60
2022-11-16T05:02:25.589Z,20.03
2022-11-16T05:05:28.379Z,19.98
2022-11-16T05:08:31.690Z,21.62
2022-11-16T05:11:34.872Z,22.48
2022-11-16T05:14:38.211Z,24.00
2022-11-16T05:17:40.659Z,21.20
2022-11-16T05:21:02.733Z,22.65
2022-11-16T05:24:24.331Z,22.50
2022-11-16T05:27:28.967Z,22.55
2022-11-16T05:30:31.228Z,23.67
2022-11-16T05:33:34.288Z,24.03
2022-11-16T05:36:37.058Z,22.42
2022-11-16T05:39:40.144Z,22.77
2022-11-16T05:42:42.477Z,25.17
2022-11-16T05:45:45.315Z,25.15
2022-11-16T05:48:49.690Z,26.80
2022-11-16T05:51:52.669Z,25.37
2022-11-16T05:54:55.062Z,24.33
2022-11-16T05:57:57.942Z,25.23
2022-11-16T06:01:00.304Z,25.70
2022-11-16T06:04:03.159Z,25.17
2022-11-16T06:07:05.893Z,26.35
2022-11-16T06:10:10.005Z,25.58
2022-11-16T06:13:13.643Z,25.10
2022-11-16T06:16:16.731Z,24.05
2022-11-16T06:19:18.973Z,26.33
2022-11-16T06:22:21.786Z,25.45
2022-11-16T06:25:24.151Z,25.37
2022-11-16T06:28:27.714Z,26.08
2022-11-16T06:31:30.229Z,24.25
2022-11-16T06:34:33.971Z,26.03
2022-11-16T06:37:37.508Z,28.73
2022-11-16T06:40:40.659Z,26.40
2022-11-16T06:43:43.291Z,27.87
2022-11-16T06:46:46.248Z,28.05
2022-11-16T06:49:48.865Z,29.23
2022-11-16T06:52:52.150Z,28.23
2022-11-16T06:55:55.470Z,27.20
2022-11-16T06:58:58.251Z,26.60
2022-11-16T07:02:00.932Z,27.83
2022-11-16T07:05:04.997Z,27.07
2022-11-16T07:08:08.124Z,26.12
2022-11-16T07:11:11.315Z,26.60
2022-11-16T07:14:13.944Z,27.67
2022-11-16T07:17:16.823Z,27.37
2022-11-16T07:20:19.435Z,27.43
2022-11-16T07:23:22.673Z,25.10
2022-11-16T07:26:25.438Z,24.87
2022-11-16T07:29:28.656Z,28.10
2022-11-16T07:32:35.954Z,27.10
2022-11-16T07:35:39.348Z,26.87
2022-11-16T07:38:41.896Z,27.85
2022-11-16T07:41:45.252Z,28.55
2022-11-16T07:44:48.772Z,26.10
2022-11-16T07:47:53.385Z,29.25
2022-11-16T07:51:06.043Z,28.87
2022-11-16T07:54:14.575Z,28.50
2022-11-16T07:57:17.406Z,27.00
2022-11-16T08:00:20.106Z,26.12
2022-11-16T08:03:24.893Z,26.87
2022-11-16T08:06:30.140Z,27.20
2022-11-16T08:09:34.805Z,28.42
2022-11-16T08:12:37.494Z,29.50
2022-11-16T08:15:41.081Z,27.52
2022-11-16T08:18:45.000Z,27.13
2022-11-16T08:21:48.495Z,28.27
2022-11-16T08:24:51.043Z,28.80
2022-11-16T08:27:54.848Z,28.75
2022-11-16T08:30:59.321Z,28.92
2022-11-16T08:34:01.969Z,30.00
2022-11-16T08:37:04.550Z,28.57
2022-11-16T08:40:08.669Z,30.05
2022-11-16T08:43:11.489Z,27.55
2022-11-16T08:46:14.644Z,30.45
2022-11-16T08:49:18.494Z,27.37
2022-11-16T08:52:21.745Z,30.97
2022-11-16T08:55:25.156Z,27.23
2022-11-16T08:58:27.943Z,28.42
2022-11-16T09:01:31.457Z,29.52
2022-11-16T09:04:36.999Z,30.25
2022-11-16T09:07:40.720Z,30.77
2022-11-16T09:10:43.402Z,27.77
2022-11-16T09:13:47.385Z,30.67
2022-11-16T09:16:49.906Z,31.17
2022-11-16T09:19:52.209Z,31.27
2022-11-16T09:22:54.716Z,28.53
2022-11-16T09:26:01.568Z,28.48
2022-11-16T09:29:04.473Z,27.87
2022-11-16T09:32:06.938Z,27.58
2022-11-16T09:35:09.891Z,27.98
2022-11-16T09:38:16.159Z,28.17
2022-11-16T09:42:08.406Z,29.05
2022-11-16T09:45:45.799Z,29.17
2022-11-16T09:48:50.111Z,28.17
2022-11-16T09:52:00.574Z,28.65
2022-11-16T09:55:26.403Z,30.53
2022-11-16T09:58:35.128Z,28.85
2022-11-16T10:01:50.321Z,27.95
2022-11-16T10:05:02.961Z,29.77
2022-11-16T10:08:18.685Z,29.80
2022-11-16T10:11:33.412Z,27.80
2022-11-16T10:14:52.092Z,27.45
2022-11-16T10:18:29.678Z,29.60
2022-11-16T10:21:50.089Z,26.90
2022-11-16T10:25:16.618Z,28.73
2022-11-16T10:28:21.891Z,28.57
2022-11-16T10:31:37.726Z,27.73
2022-11-16T10:35:17.027Z,27.85
2022-11-16T10:38:28.372Z,27.85
2022-11-16T10:41:40.180Z,28.38
2022-11-16T10:44:51.716Z,26.77
2022-11-16T10:48:07.862Z,27.17
2022-11-16T10:51:10.690Z,28.45
2022-11-16T10:54:14.269Z,26.70
2022-11-16T10:57:17.933Z,26.52
2022-11-16T11:00:46.882Z,25.80
2022-11-16T11:03:50.827Z,26.65
2022-11-16T11:07:23.335Z,26.40
2022-11-16T11:10:33.526Z,24.98
2022-11-16T11:13:35.975Z,26.73
2022-11-16T11:16:41.390Z,25.87
2022-11-16T11:19:43.648Z,28.30
2022-11-16T11:22:56.241Z,26.87
2022-11-16T11:26:00.489Z,24.23
2022-11-16T11:29:25.069Z,25.62
2022-11-16T11:32:34.278Z,25.33
2022-11-16T11:35:36.982Z,25.80
2022-11-16T11:39:15.952Z,25.98
2022-11-16T11:42:23.288Z,24.02
2022-11-16T11:45:32.517Z,24.45
2022-11-16T11:48:57.749Z,23.03
2022-11-16T11:52:17.322Z,25.58
2022-11-16T11:55:19.918Z,24.58
2022-11-16T11:58:26.391Z,25.30
2022-11-16T12:02:08.089Z,24.67
2022-11-16T12:05:28.346Z,25.27
2022-11-16T12:08:30.496Z,23.15
2022-11-16T12:11:45.403Z,23.80
2022-11-16T12:15:13.591Z,23.00
2022-11-16T12:18:34.648Z,23.80
2022-11-16T12:21:58.490Z,25.77
2022-11-16T12:25:27.373Z,23.35
2022-11-16T12:28:51.692Z,24.25
2022-11-16T12:32:03.077Z,24.37
2022-11-16T12:35:33.664Z,24.17
2022-11-16T12:39:01.056Z,23.73
2022-11-16T12:42:40.536Z,24.17
2022-11-16T12:46:05.010Z,24.85
2022-11-16T12:49:31.844Z,23.77
2022-11-16T12:52:50.169Z,23.05
2022-11-16T12:56:27.618Z,24.00
2022-11-16T12:59:33.077Z,21.70
2022-11-16T13:02:41.041Z,24.12
2022-11-16T13:05:56.062Z,22.95
2022-11-16T13:09:11.116Z,23.45
2022-11-16T13:12:17.416Z,22.57
2022-11-16T13:15:22.376Z,24.02
2022-11-16T13:18:26.589Z,24.25
2022-11-16T13:21:47.860Z,22.25
2022-11-16T13:25:20.225Z,22.98
2022-11-16T13:28:33.637Z,21.80
2022-11-16T13:31:48.451Z,21.70
2022-11-16T13:34:52.396Z,21.77
2022-11-16T13:37:55.054Z,20.67
2022-11-16T13:41:46.267Z,21.08
2022-11-16T13:44:51.525Z,21.17
2022-11-16T13:47:56.830Z,21.08
2022-11-16T13:51:05.975Z,21.05
2022-11-16T13:57:36.431Z,20.88
2022-11-16T14:00:40.694Z,20.33
2022-11-16T14:03:45.948Z,21.37
2022-11-16T14:06:48.202Z,18.65
2022-11-16T14:09:50.809Z,19.73
2022-11-16T14:12:57.157Z,20.62
2022-11-16T14:16:15.001Z,20.53
2022-11-16T14:19:49.143Z,19.05
2022-11-16T14:23:01.163Z,19.52
2022-11-16T14:26:17.226Z,20.15
2022-11-16T14:29:39.995Z,18.05
2022-11-16T14:32:52.423Z,19.07
2022-11-16T14:35:55.076Z,20.08
2022-11-16T14:39:19.887Z,17.15
2022-11-16T14:42:38.160Z,18.08
2022-11-16T14:46:09.378Z,18.48
2022-11-16T14:49:16.134Z,19.07
2022-11-16T14:52:25.531Z,19.90
2022-11-16T14:55:28.766Z,19.70
2022-11-16T14:58:30.978Z,20.23
2022-11-16T15:01:37.033Z,17.95
2022-11-16T15:04:39.426Z,18.40
2022-11-16T15:07:43.173Z,17.58
2022-11-16T15:10:52.146Z,19.52
2022-11-16T15:13:55.644Z,18.17
2022-11-16T15:16:59.569Z,18.25
2022-11-16T15:20:14.206Z,18.77
2022-11-16T15:23:17.383Z,18.35
2022-11-16T15:26:23.893Z,17.98
2022-11-16T15:29:26.189Z,19.62
2022-11-16T15:32:28.849Z,17.60
2022-11-16T15:35:32.797Z,20.57
2022-11-16T15:38:37.587Z,19.12
2022-11-16T15:41:40.382Z,18.45
2022-11-16T15:44:44.114Z,19.33
2022-11-16T15:47:47.415Z,18.90
2022-11-16T15:51:20.063Z,18.23
2022-11-16T15:54:26.604Z,19.60
2022-11-16T15:57:29.224Z,18.73
2022-11-16T16:00:35.142Z,18.58
2022-11-16T16:03:38.653Z,17.08
2022-11-16T16:06:57.231Z,16.33
2022-11-16T16:10:24.389Z,17.95
2022-11-16T16:13:48.490Z,18.48
2022-11-16T16:16:57.265Z,17.42
2022-11-16T16:20:05.694Z,18.48
2022-11-16T16:23:12.846Z,17.40
2022-11-16T16:26:16.667Z,17.35
2022-11-16T16:29:19.204Z,15.57
2022-11-16T16:32:36.916Z,16.92
2022-11-16T16:35:39.475Z,16.83
2022-11-16T16:38:41.697Z,16.17
2022-11-16T16:41:44.505Z,17.65
2022-11-16T16:44:48.013Z,17.08
2022-11-16T16:47:50.576Z,17.27
2022-11-16T16:50:52.838Z,19.25
2022-11-16T16:53:55.410Z,17.10
2022-11-16T16:56:58.073Z,17.20
2022-11-16T17:00:00.726Z,18.35
2022-11-16T17:03:03.036Z,17.87
2022-11-16T17:06:05.838Z,16.98
2022-11-16T17:09:08.080Z,18.17
2022-11-16T17:12:11.115Z,18.33
2022-11-16T17:15:19.046Z,17.75
2022-11-16T17:18:22.644Z,17.83
2022-11-16T17:21:24.938Z,17.60
2022-11-16T17:24:27.476Z,17.00
2022-11-16T17:27:30.735Z,17.33
2022-11-16T17:30:33.222Z,16.95
2022-11-16T17:33:40.302Z,17.12
2022-11-16T17:36:43.303Z,17.25
2022-11-16T17:39:45.524Z,18.30
2022-11-16T17:42:49.596Z,17.50
2022-11-16T17:45:51.977Z,17.37
2022-11-16T17:48:54.741Z,17.87
2022-11-16T17:51:57.284Z,16.92
2022-11-16T17:54:59.835Z,16.67
2022-11-16T17:58:02.469Z,16.42
2022-11-16T18:01:05.371Z,18.40
2022-11-16T18:04:08.175Z,17.17
2022-11-16T18:07:10.677Z,18.25
2022-11-16T18:10:17.950Z,18.07
2022-11-16T18:13:21.805Z,15.82
2022-11-16T18:16:27.627Z,16.90
2022-11-16T18:19:29.955Z,16.45
2022-11-16T18:22:32.658Z,15.85
2022-11-16T18:25:36.888Z,15.33
2022-11-16T18:28:41.182Z,15.77
2022-11-16T18:31:43.697Z,15.05
2022-11-16T18:34:46.591Z,14.70
2022-11-16T18:37:48.909Z,15.05
2022-11-16T18:41:04.483Z,13.73
2022-11-16T18:44:07.932Z,17.67
2022-11-16T18:47:10.544Z,13.75
2022-11-16T18:50:19.009Z,13.23
2022-11-16T18:53:24.013Z,14.20
2022-11-16T18:56:27.237Z,12.30
2022-11-16T18:59:29.835Z,13.68
2022-11-16T19:02:32.168Z,12.13
2022-11-16T19:05:34.777Z,12.50
2022-11-16T19:08:38.650Z,12.82
2022-11-16T19:11:41.375Z,13.20
2022-11-16T19:14:43.623Z,14.65
2022-11-16T19:18:14.233Z,13.20
2022-11-16T19:21:11.051Z,11.70
2022-11-16T19:24:13.667Z,11.30
2022-11-16T19:27:16.735Z,13.37
2022-11-16T19:30:19.530Z,11.98
2022-11-16T19:33:21.790Z,11.10
2022-11-16T19:36:25.557Z,10.63
2022-11-16T19:39:27.832Z,11.55
2022-11-16T19:42:30.636Z,10.13
2022-11-16T19:45:32.835Z,11.85
2022-11-16T19:48:38.337Z,11.52
2022-11-16T19:51:40.586Z,12.43
2022-11-16T19:54:43.065Z,13.27
2022-11-16T19:57:45.478Z,13.80
2022-11-16T20:00:48.110Z,13.93
2022-11-16T20:03:51.058Z,15.15
2022-11-16T20:06:53.356Z,16.08
2022-11-16T20:09:56.012Z,15.65
2022-11-16T20:13:01.089Z,15.80
2022-11-16T20:16:03.681Z,16.58
2022-11-16T20:19:07.058Z,17.50
2022-11-16T20:22:09.657Z,16.37
2022-11-16T20:25:11.914Z,16.98
2022-11-16T20:28:14.418Z,16.83
2022-11-16T20:31:21.937Z,17.12
2022-11-16T20:34:24.977Z,17.00
2022-11-16T20:37:27.219Z,17.35
2022-11-16T20:40:29.877Z,17.25
2022-11-16T20:43:32.384Z,15.90
2022-11-16T20:46:36.724Z,17.25
2022-11-16T20:49:39.011Z,17.77
2022-11-16T20:52:44.306Z,16.12
2022-11-16T20:55:49.978Z,14.45
2022-11-16T20:58:52.556Z,14.93
2022-11-16T21:01:55.297Z,14.43
2022-11-16T21:05:00.501Z,13.82
2022-11-16T21:08:02.923Z,13.38
2022-11-16T21:11:13.656Z,12.30
2022-11-16T21:14:15.887Z,12.00
2022-11-16T21:17:18.680Z,12.40
2022-11-16T21:20:27.347Z,11.43
2022-11-16T21:23:32.479Z,12.45
2022-11-16T21:26:35.535Z,10.73
2022-11-16T21:29:38.065Z,10.60
2022-11-16T21:32:40.363Z,10.85
2022-11-16T21:35:42.808Z,11.27
2022-11-16T21:38:46.021Z,11.80
2022-11-16T21:41:48.646Z,11.65
2022-11-16T21:44:51.011Z,12.10
2022-11-16T21:47:53.620Z,10.73
2022-11-16T21:51:16.513Z,11.25
2022-11-16T21:54:19.235Z,11.88
2022-11-16T21:57:21.836Z,12.30
2022-11-16T22:00:25.398Z,13.23
2022-11-16T22:03:29.872Z,12.43
2022-11-16T22:06:50.592Z,13.57
2022-11-16T22:09:53.217Z,13.10
2022-11-16T22:12:55.424Z,14.10
2022-11-16T22:15:57.953Z,12.77
2022-11-16T22:19:00.322Z,15.25
2022-11-16T22:22:03.054Z,15.13
2022-11-16T22:25:05.974Z,14.15
2022-11-16T22:28:23.964Z,14.52
2022-11-16T22:31:26.265Z,13.87
2022-11-16T22:34:28.769Z,12.60
2022-11-16T22:37:31.417Z,12.68
2022-11-16T22:40:33.984Z,13.85
2022-11-16T22:43:37.388Z,13.13
2022-11-16T22:46:41.043Z,12.53
2022-11-16T22:49:43.291Z,13.48
2022-11-16T22:52:45.944Z,13.15
2022-11-16T22:55:48.145Z,13.82
2022-11-16T22:58:50.645Z,13.32
2022-11-16T23:01:52.942Z,13.87
2022-11-16T23:04:55.419Z,13.75
2022-11-16T23:07:57.838Z,13.68
2022-11-16T23:11:19.956Z,12.90
2022-11-16T23:14:41.126Z,13.25
2022-11-16T23:17:45.374Z,12.83
2022-11-16T23:21:06.062Z,13.57
2022-11-16T23:24:31.550Z,13.88
2022-11-16T23:27:51.477Z,13.30
2022-11-16T23:30:54.026Z,12.90
2022-11-16T23:33:56.273Z,14.70
2022-11-16T23:37:03.345Z,12.98
2022-11-16T23:40:06.082Z,12.57
2022-11-16T23:43:28.876Z,11.30
2022-11-16T23:46:32.432Z,14.07
2022-11-16T23:49:34.965Z,14.20
2022-11-16T23:52:37.203Z,13.25
2022-11-16T23:55:40.181Z,14.50
2022-11-16T23:58:42.435Z,14.85
